createdAt,value
2023-03-23T15:59:49.697Z,98165.31
2023-03-23T16:02:25.452Z,98159.63
2023-03-23T16:04:56.588Z,98165.84
2023-03-23T16:07:26.114Z,98165.03
2023-03-23T16:09:55.254Z,98158.59
2023-03-23T16:12:27.327Z,98159.28
2023-03-23T16:14:59.243Z,98157.06
2023-03-23T16:17:30.401Z,98154.69
2023-03-23T16:19:59.163Z,98165.19
2023-03-23T16:22:27.818Z,98156.41
2023-03-23T16:24:56.621Z,98167.56
2023-03-23T16:27:25.525Z,98184.34
2023-03-23T16:30:04.023Z,98188.75
2023-03-23T16:35:04.861Z,98207.19
2023-03-23T16:37:34.580Z,98200.69
2023-03-23T16:40:04.702Z,98201.31
2023-03-23T16:42:36.817Z,98205.91
2023-03-23T16:45:07.006Z,98202.66
2023-03-23T16:47:40.838Z,98201.31
2023-03-23T16:50:17.145Z,98199.44
2023-03-23T16:52:48.711Z,98202.78
2023-03-23T16:55:19.171Z,98192.78
2023-03-23T16:57:47.950Z,98201.41
2023-03-23T17:00:20.481Z,98197.84
2023-03-23T17:02:54.200Z,98194.91
2023-03-23T17:05:24.923Z,98195.53
2023-03-23T17:07:56.024Z,98202.53
2023-03-23T17:10:31.415Z,98204.72
2023-03-23T17:13:01.076Z,98212.09
2023-03-23T17:15:59.134Z,98213.19
2023-03-23T17:18:29.803Z,98221.06
2023-03-23T17:20:58.906Z,98231.31
2023-03-23T17:23:28.995Z,98229.72
2023-03-23T17:25:57.937Z,98225.34
2023-03-23T17:28:27.086Z,98216.25
2023-03-23T17:30:56.397Z,98211.97
2023-03-23T17:33:25.712Z,98209.00
2023-03-23T17:35:57.517Z,98214.22
2023-03-23T17:38:29.462Z,98218.03
2023-03-23T17:41:01.111Z,98224.81
2023-03-23T17:43:32.131Z,98225.75
2023-03-23T17:46:03.514Z,98228.03
2023-03-23T17:48:36.955Z,98233.97
2023-03-23T17:51:08.380Z,98223.50
2023-03-23T17:53:38.571Z,98227.00
2023-03-23T17:56:09.676Z,98231.91
2023-03-23T17:58:41.656Z,98221.66
2023-03-23T18:01:11.636Z,98233.53
2023-03-23T18:03:42.232Z,98228.47
2023-03-23T18:06:14.200Z,98224.97
2023-03-23T18:08:43.171Z,98230.44
2023-03-23T18:11:12.211Z,98238.25
2023-03-23T18:13:41.111Z,98245.53
2023-03-23T18:16:11.353Z,98249.88
2023-03-23T18:18:40.172Z,98247.19
2023-03-23T18:21:12.448Z,98256.88
2023-03-23T18:23:52.931Z,98248.00
2023-03-23T18:26:25.968Z,98249.63
2023-03-23T18:28:55.291Z,98254.22
2023-03-23T18:31:25.353Z,98245.34
2023-03-23T18:33:55.379Z,98236.47
2023-03-23T18:36:31.460Z,98242.13
2023-03-23T18:39:01.567Z,98233.78
2023-03-23T18:41:31.109Z,98240.75
2023-03-23T18:43:59.841Z,98243.44
2023-03-23T18:46:28.870Z,98234.03
2023-03-23T18:48:58.467Z,98236.19
2023-03-23T18:51:30.976Z,98249.91
2023-03-23T18:54:00.649Z,98245.88
2023-03-23T18:56:29.455Z,98246.66
2023-03-23T18:58:58.488Z,98233.50
2023-03-23T19:01:30.694Z,98239.69
2023-03-23T19:03:59.797Z,98241.28
2023-03-23T19:06:30.232Z,98238.03
2023-03-23T19:08:59.234Z,98235.59
2023-03-23T19:11:28.223Z,98239.06
2023-03-23T19:14:03.107Z,98235.03
2023-03-23T19:16:36.150Z,98233.16
2023-03-23T19:19:08.783Z,98232.63
2023-03-23T19:21:46.997Z,98232.59
2023-03-23T19:24:20.340Z,98236.63
2023-03-23T19:26:50.498Z,98245.41
2023-03-23T19:29:27.614Z,98241.38
2023-03-23T19:32:00.147Z,98240.81
2023-03-23T19:34:34.849Z,98236.88
2023-03-23T19:37:10.683Z,98241.13
2023-03-23T19:39:42.529Z,98226.69
2023-03-23T19:42:19.545Z,98228.25
2023-03-23T19:44:53.453Z,98226.38
2023-03-23T19:47:25.977Z,98225.06
2023-03-23T19:49:56.855Z,98233.38
2023-03-23T19:52:28.870Z,98234.16
2023-03-23T19:55:03.897Z,98233.56
2023-03-23T19:57:33.449Z,98238.38
2023-03-23T20:00:03.712Z,98236.22
2023-03-23T20:02:34.281Z,98235.13
2023-03-23T20:05:04.042Z,98237.53
2023-03-23T20:07:34.686Z,98244.81
2023-03-23T20:10:03.977Z,98238.94
2023-03-23T20:12:32.930Z,98241.09
2023-03-23T20:15:01.735Z,98240.53
2023-03-23T20:17:31.030Z,98233.56
2023-03-23T20:20:01.475Z,98235.94
2023-03-23T20:22:30.696Z,98243.78
2023-03-23T20:25:01.676Z,98242.38
2023-03-23T20:27:30.527Z,98242.66
2023-03-23T20:29:59.462Z,98238.38
2023-03-23T20:32:30.751Z,98243.19
2023-03-23T20:35:06.487Z,98246.97
2023-03-23T20:37:38.096Z,98247.25
2023-03-23T20:40:12.107Z,98246.41
2023-03-23T20:42:45.201Z,98252.84
2023-03-23T20:45:16.104Z,98253.41
2023-03-23T20:47:44.873Z,98253.69
2023-03-23T20:50:13.826Z,98254.53
2023-03-23T20:52:42.691Z,98253.97
2023-03-23T20:55:12.771Z,98251.56
2023-03-23T20:57:42.204Z,98250.19
2023-03-23T21:00:16.219Z,98240.47
2023-03-23T21:02:45.527Z,98236.75
2023-03-23T21:05:14.870Z,98239.47
2023-03-23T21:07:43.871Z,98241.56
2023-03-23T21:10:13.974Z,98239.44
2023-03-23T21:12:42.743Z,98229.19
2023-03-23T21:15:11.508Z,98236.16
2023-03-23T21:17:40.183Z,98234.31
2023-03-23T21:20:11.487Z,98231.34
2023-03-23T21:22:40.362Z,98233.78
2023-03-23T21:25:10.136Z,98231.03
2023-03-23T21:27:42.271Z,98223.25
2023-03-23T21:30:12.190Z,98222.75
2023-03-23T21:32:41.245Z,98217.03
2023-03-23T21:35:16.542Z,98223.72
2023-03-23T21:37:45.820Z,98207.66
2023-03-23T21:40:17.730Z,98216.50
2023-03-23T21:42:51.120Z,98203.91
2023-03-23T21:45:21.454Z,98200.38
2023-03-23T21:47:57.862Z,98201.69
2023-03-23T21:50:27.795Z,98197.97
2023-03-23T21:52:56.384Z,98201.47
2023-03-23T21:55:25.331Z,98196.84
2023-03-23T21:57:55.327Z,98195.53
2023-03-23T22:00:25.045Z,98194.72
2023-03-23T22:02:53.956Z,98196.09
2023-03-23T22:05:24.237Z,98190.97
2023-03-23T22:07:54.265Z,98188.28
2023-03-23T22:10:24.312Z,98183.94
2023-03-23T22:12:55.619Z,98187.66
2023-03-23T22:15:28.157Z,98196.56
2023-03-23T22:17:56.979Z,98182.84
2023-03-23T22:20:26.727Z,98185.28
2023-03-23T22:22:56.257Z,98184.75
2023-03-23T22:25:27.800Z,98184.63
2023-03-23T22:27:58.295Z,98180.69
2023-03-23T22:30:29.771Z,98174.75
2023-03-23T22:32:58.884Z,98175.09
2023-03-23T22:35:28.222Z,98171.56
2023-03-23T22:37:57.840Z,98177.50
2023-03-23T22:40:26.633Z,98172.41
2023-03-23T22:42:55.442Z,98164.38
2023-03-23T22:45:26.177Z,98161.94
2023-03-23T22:47:55.235Z,98162.50
2023-03-23T22:50:24.598Z,98152.81
2023-03-23T22:52:53.451Z,98152.56
2023-03-23T22:55:22.469Z,98146.66
2023-03-23T22:57:51.229Z,98139.94
2023-03-23T23:00:20.786Z,98135.63
2023-03-23T23:02:51.215Z,98129.75
2023-03-23T23:05:20.370Z,98129.78
2023-03-23T23:07:49.250Z,98130.06
2023-03-23T23:10:18.969Z,98121.72
2023-03-23T23:12:47.832Z,98117.63
2023-03-23T23:15:16.791Z,98116.88
2023-03-23T23:17:45.770Z,98118.25
2023-03-23T23:20:16.026Z,98112.09
2023-03-23T23:22:45.160Z,98121.75
2023-03-23T23:25:14.012Z,98108.88
2023-03-23T23:27:42.867Z,98101.66
2023-03-23T23:30:14.020Z,98111.56
2023-03-23T23:32:44.774Z,98111.22
2023-03-23T23:35:16.916Z,98102.13
2023-03-23T23:37:46.093Z,98100.28
2023-03-23T23:40:15.928Z,98094.09
2023-03-23T23:42:51.170Z,98096.78
2023-03-23T23:45:21.535Z,98090.34
2023-03-23T23:47:50.492Z,98096.75
2023-03-23T23:50:21.625Z,98085.78
2023-03-23T23:52:52.325Z,98081.72
2023-03-23T23:55:22.479Z,98082.81
2023-03-23T23:57:51.518Z,98075.56
